createdAt,value
2023-04-16T00:04:28.613Z,95.62
2023-04-16T00:09:30.646Z,95.50
2023-04-16T00:14:33.944Z,96.35
2023-04-16T00:19:36.083Z,95.88
2023-04-16T00:24:38.042Z,95.86
2023-04-16T00:29:41.316Z,96.11
2023-04-16T00:34:43.281Z,96.04
2023-04-16T00:39:45.789Z,96.81
2023-04-16T00:44:49.102Z,96.33
2023-04-16T00:49:51.204Z,96.41
2023-04-16T00:54:53.951Z,96.81
2023-04-16T00:59:58.136Z,97.52
2023-04-16T01:05:00.706Z,98.17
2023-04-16T01:10:02.942Z,98.83
2023-04-16T01:15:07.924Z,99.18
2023-04-16T01:20:10.442Z,98.80
2023-04-16T01:25:16.101Z,99.33
2023-04-16T01:30:18.055Z,99.13
2023-04-16T01:35:20.076Z,98.62
2023-04-16T01:40:23.363Z,98.90
2023-04-16T01:45:25.441Z,98.38
2023-04-16T01:50:28.253Z,98.23
2023-04-16T01:55:31.980Z,97.78
2023-04-16T02:00:33.838Z,98.09
2023-04-16T02:05:35.859Z,98.41
2023-04-16T02:10:39.142Z,98.34
2023-04-16T02:15:45.160Z,98.38
2023-04-16T02:20:47.980Z,98.31
2023-04-16T02:25:51.582Z,98.12
2023-04-16T02:30:53.560Z,98.61
2023-04-16T02:35:55.510Z,98.49
2023-04-16T02:40:59.376Z,99.17
2023-04-16T02:46:01.377Z,99.17
2023-04-16T02:51:03.431Z,99.33
2023-04-16T02:56:07.510Z,99.66
2023-04-16T03:01:09.617Z,99.49
2023-04-16T03:06:11.691Z,99.40
2023-04-16T03:11:14.977Z,99.55
2023-04-16T03:16:17.031Z,99.64
2023-04-16T03:21:19.183Z,99.17
2023-04-16T03:26:22.511Z,99.40
2023-04-16T03:31:24.575Z,99.39
2023-04-16T03:36:27.172Z,99.57
2023-04-16T03:41:30.472Z,99.33
2023-04-16T03:46:32.516Z,99.63
2023-04-16T03:51:34.480Z,99.29
2023-04-16T03:56:39.728Z,99.51
2023-04-16T04:01:41.712Z,99.77
2023-04-16T04:06:45.773Z,99.42
2023-04-16T04:11:49.080Z,99.50
2023-04-16T04:16:50.992Z,99.15
2023-04-16T04:21:52.998Z,99.68
2023-04-16T04:26:57.349Z,99.84
2023-04-16T04:31:59.348Z,99.65
2023-04-16T04:37:01.512Z,99.45
2023-04-16T04:42:04.910Z,99.35
2023-04-16T04:47:06.838Z,99.50
2023-04-16T04:52:08.951Z,98.56
2023-04-16T04:57:12.243Z,97.51
2023-04-16T05:02:14.279Z,97.60
2023-04-16T05:07:16.288Z,96.39
2023-04-16T05:12:19.604Z,95.27
2023-04-16T05:17:21.589Z,92.95
2023-04-16T05:22:23.576Z,90.45
2023-04-16T05:27:26.925Z,90.38
2023-04-16T05:32:28.894Z,86.52
2023-04-16T05:37:31.035Z,86.94
2023-04-16T05:42:34.339Z,85.79
2023-04-16T05:47:36.352Z,84.07
2023-04-16T05:52:38.381Z,84.07
2023-04-16T05:57:41.714Z,83.34
2023-04-16T06:02:43.683Z,81.51
2023-04-16T06:07:45.650Z,81.80
2023-04-16T06:12:49.022Z,83.27
2023-04-16T06:17:51.220Z,80.95
2023-04-16T06:22:53.287Z,82.06
2023-04-16T06:27:56.588Z,79.34
2023-04-16T06:32:58.770Z,78.48
2023-04-16T06:38:00.787Z,78.40
2023-04-16T06:43:04.190Z,76.20
2023-04-16T06:48:06.498Z,74.72
2023-04-16T06:53:08.633Z,75.18
2023-04-16T06:58:11.946Z,76.47
2023-04-16T07:03:14.349Z,73.46
2023-04-16T07:08:16.367Z,74.25
2023-04-16T07:13:20.422Z,74.96
2023-04-16T07:18:23.562Z,75.66
2023-04-16T07:23:25.645Z,75.11
2023-04-16T07:28:28.954Z,74.13
2023-04-16T07:33:30.970Z,75.50
2023-04-16T07:38:34.489Z,72.51
2023-04-16T07:43:37.942Z,70.77
2023-04-16T07:48:39.889Z,70.37
2023-04-16T07:53:43.325Z,69.91
2023-04-16T07:58:46.631Z,67.07
2023-04-16T08:03:49.003Z,67.38
2023-04-16T08:08:51.119Z,67.65
2023-04-16T08:13:54.500Z,66.84
2023-04-16T08:18:56.452Z,65.85
2023-04-16T08:23:58.446Z,69.98
2023-04-16T08:29:01.866Z,68.03
2023-04-16T08:34:03.873Z,67.35
2023-04-16T08:39:05.906Z,68.30
2023-04-16T08:44:14.083Z,64.40
2023-04-16T08:49:20.708Z,65.20
2023-04-16T08:54:34.645Z,64.02
2023-04-16T08:59:38.340Z,63.55
2023-04-16T09:04:41.455Z,60.19
2023-04-16T09:09:44.092Z,61.37
2023-04-16T09:14:49.568Z,63.60
2023-04-16T09:19:51.569Z,68.46
2023-04-16T09:24:53.521Z,67.39
2023-04-16T09:29:56.820Z,62.85
2023-04-16T09:35:00.537Z,65.66
2023-04-16T09:40:04.603Z,63.59
2023-04-16T09:45:08.625Z,64.74
2023-04-16T09:50:17.764Z,60.50
2023-04-16T09:55:23.454Z,59.79
2023-04-16T10:00:28.599Z,61.56
2023-04-16T10:05:30.671Z,60.94
2023-04-16T10:10:32.730Z,59.69
2023-04-16T10:15:36.187Z,59.74
2023-04-16T10:20:38.666Z,56.00
2023-04-16T10:25:42.022Z,57.48
2023-04-16T10:30:52.891Z,56.72
2023-04-16T10:36:09.510Z,54.50
2023-04-16T10:41:11.824Z,51.90
2023-04-16T10:46:23.251Z,52.72
2023-04-16T10:51:28.487Z,53.43
2023-04-16T10:56:33.030Z,54.53
2023-04-16T11:01:37.942Z,53.56
2023-04-16T11:06:39.996Z,55.46
2023-04-16T11:11:42.081Z,51.53
2023-04-16T11:16:45.637Z,50.88
2023-04-16T11:21:47.718Z,53.29
2023-04-16T11:26:51.731Z,51.44
2023-04-16T11:31:55.368Z,50.47
2023-04-16T11:36:57.496Z,51.30
2023-04-16T11:41:59.470Z,51.93
2023-04-16T11:47:06.471Z,52.51
2023-04-16T11:52:08.677Z,51.31
2023-04-16T11:57:11.357Z,51.91
2023-04-16T12:02:14.788Z,53.45
2023-04-16T12:07:17.004Z,53.24
2023-04-16T12:12:26.377Z,52.93
2023-04-16T12:17:30.676Z,53.04
2023-04-16T12:22:37.580Z,49.34
2023-04-16T12:27:45.509Z,52.93
2023-04-16T12:32:50.530Z,49.05
2023-04-16T12:37:52.624Z,53.06
2023-04-16T12:42:54.930Z,49.93
2023-04-16T12:47:58.344Z,49.05
2023-04-16T12:53:00.660Z,47.84
2023-04-16T12:58:02.692Z,49.92
2023-04-16T13:03:06.224Z,47.72
2023-04-16T13:08:08.356Z,47.04
2023-04-16T13:13:10.323Z,47.73
2023-04-16T13:18:13.636Z,49.43
2023-04-16T13:23:15.674Z,52.21
2023-04-16T13:28:17.645Z,49.21
2023-04-16T13:33:21.387Z,48.15
2023-04-16T13:38:23.353Z,48.20
2023-04-16T13:43:25.311Z,48.96
2023-04-16T13:48:29.305Z,46.84
2023-04-16T13:53:31.449Z,46.94
2023-04-16T13:58:33.534Z,46.56
2023-04-16T14:03:38.503Z,47.32
2023-04-16T14:08:40.692Z,49.07
2023-04-16T14:13:42.680Z,46.15
2023-04-16T14:18:47.274Z,46.89
2023-04-16T14:23:49.568Z,49.37
2023-04-16T14:28:51.569Z,48.70
2023-04-16T14:33:54.912Z,50.26
2023-04-16T14:38:56.957Z,47.57
2023-04-16T14:44:00.098Z,47.45
2023-04-16T14:49:03.999Z,48.13
2023-04-16T14:54:06.082Z,47.71
2023-04-16T14:59:08.240Z,47.48
2023-04-16T15:04:11.859Z,48.57
2023-04-16T15:09:13.938Z,49.23
2023-04-16T15:14:16.703Z,47.58
2023-04-16T15:19:20.057Z,48.37
2023-04-16T15:24:22.375Z,45.97
2023-04-16T15:29:24.523Z,46.78
2023-04-16T15:34:28.289Z,45.97
2023-04-16T15:39:30.867Z,45.94
2023-04-16T15:44:33.299Z,45.69
2023-04-16T15:49:36.562Z,45.96
2023-04-16T15:54:38.636Z,46.57
2023-04-16T15:59:40.769Z,47.91
2023-04-16T16:04:46.001Z,47.10
2023-04-16T16:09:48.255Z,48.67
2023-04-16T16:14:50.309Z,49.34
2023-04-16T16:19:53.851Z,47.51
2023-04-16T16:24:57.562Z,48.76
2023-04-16T16:30:01.049Z,48.61
2023-04-16T16:35:04.865Z,49.65
2023-04-16T16:40:07.777Z,49.66
2023-04-16T16:45:11.321Z,50.04
2023-04-16T16:50:16.107Z,49.68
2023-04-16T16:55:18.924Z,50.68
2023-04-16T17:00:21.858Z,52.74
2023-04-16T17:05:25.388Z,53.25
2023-04-16T17:10:27.934Z,55.56
2023-04-16T17:15:29.813Z,55.22
2023-04-16T17:20:33.811Z,56.61
2023-04-16T17:25:35.885Z,60.30
2023-04-16T17:30:37.865Z,60.39
2023-04-16T17:35:41.286Z,61.45
2023-04-16T17:40:43.275Z,65.15
2023-04-16T17:45:45.340Z,67.20
2023-04-16T17:50:49.750Z,69.32
2023-04-16T17:55:52.135Z,69.79
2023-04-16T18:00:55.303Z,70.99
2023-04-16T18:05:59.107Z,71.51
2023-04-16T18:11:01.086Z,73.61
2023-04-16T18:16:03.248Z,74.44
2023-04-16T18:21:06.602Z,75.04
2023-04-16T18:26:09.359Z,72.65
2023-04-16T18:31:12.650Z,73.42
2023-04-16T18:36:16.315Z,73.58
2023-04-16T18:41:18.634Z,73.83
2023-04-16T18:46:20.837Z,75.19
2023-04-16T18:51:24.901Z,73.87
2023-04-16T18:56:29.062Z,73.51
2023-04-16T19:01:31.213Z,74.94
2023-04-16T19:06:34.562Z,73.94
2023-04-16T19:11:36.620Z,75.41
2023-04-16T19:16:38.944Z,76.83
2023-04-16T19:21:42.300Z,76.24
2023-04-16T19:26:44.266Z,77.08
2023-04-16T19:31:47.118Z,77.40
2023-04-16T19:36:50.653Z,77.50
2023-04-16T19:41:52.613Z,78.03
2023-04-16T19:46:54.625Z,78.95
2023-04-16T19:51:57.988Z,77.77
2023-04-16T19:56:59.975Z,79.83
2023-04-16T20:02:02.035Z,80.78
2023-04-16T20:07:05.498Z,81.23
2023-04-16T20:12:07.577Z,81.51
2023-04-16T20:17:10.378Z,81.98
2023-04-16T20:22:14.866Z,83.04
2023-04-16T20:27:19.368Z,83.88
2023-04-16T20:32:21.471Z,84.44
2023-04-16T20:37:24.851Z,84.39
2023-04-16T20:42:27.631Z,84.84
2023-04-16T20:47:29.702Z,84.95
2023-04-16T20:52:33.245Z,85.43
2023-04-16T20:57:35.314Z,85.21
2023-04-16T21:02:37.693Z,85.36
2023-04-16T21:07:41.812Z,85.49
2023-04-16T21:12:43.759Z,85.53
2023-04-16T21:17:45.875Z,85.77
2023-04-16T21:22:51.085Z,85.37
2023-04-16T21:27:53.114Z,85.90
2023-04-16T21:32:55.162Z,85.66
2023-04-16T21:37:58.498Z,85.53
2023-04-16T21:43:00.967Z,86.00
2023-04-16T21:48:03.033Z,86.67
2023-04-16T21:53:06.671Z,85.85
2023-04-16T21:58:08.690Z,86.35
2023-04-16T22:03:12.384Z,86.53
2023-04-16T22:08:24.195Z,86.58
2023-04-16T22:13:27.801Z,86.51
2023-04-16T22:18:32.960Z,86.83
2023-04-16T22:23:36.568Z,87.39
2023-04-16T22:28:38.803Z,88.12
2023-04-16T22:33:40.730Z,88.10
2023-04-16T22:38:44.037Z,89.23
2023-04-16T22:43:46.088Z,89.57
2023-04-16T22:48:48.641Z,88.92
2023-04-16T22:53:52.048Z,90.76
2023-04-16T22:58:54.163Z,91.31
2023-04-16T23:03:56.398Z,91.58
2023-04-16T23:08:59.768Z,91.42
2023-04-16T23:14:02.914Z,91.24
2023-04-16T23:19:04.902Z,91.28
2023-04-16T23:24:08.472Z,91.67
2023-04-16T23:29:10.557Z,91.84
2023-04-16T23:34:12.720Z,91.70
2023-04-16T23:39:16.193Z,92.13
2023-04-16T23:44:18.172Z,93.00
2023-04-16T23:49:20.334Z,93.02
2023-04-16T23:54:23.785Z,94.56
2023-04-16T23:59:25.849Z,94.29
